sensor_id;sensor_type;location;lat;lon;timestamp;temperature;humidity
26599;DHT22;14240;51.064;16.612;2022-12-26T00:01:54;8.60;99.90
26599;DHT22;14240;51.064;16.612;2022-12-26T00:04:20;8.60;99.90
26599;DHT22;14240;51.064;16.612;2022-12-26T00:06:46;8.60;99.90
26599;DHT22;14240;51.064;16.612;2022-12-26T00:09:12;8.70;99.90
26599;DHT22;14240;51.064;16.612;2022-12-26T00:11:38;8.70;99.90
26599;DHT22;14240;51.064;16.612;2022-12-26T00:14:10;8.70;99.90
26599;DHT22;14240;51.064;16.612;2022-12-26T00:16:36;8.70;99.90
26599;DHT22;14240;51.064;16.612;2022-12-26T00:19:03;8.70;99.90
26599;DHT22;14240;51.064;16.612;2022-12-26T00:21:29;8.70;99.90
26599;DHT22;14240;51.064;16.612;2022-12-26T00:23:56;8.70;99.90
26599;DHT22;14240;51.064;16.612;2022-12-26T00:26:23;8.70;99.90
26599;DHT22;14240;51.064;16.612;2022-12-26T00:28:51;8.70;99.90
26599;DHT22;14240;51.064;16.612;2022-12-26T00:31:23;8.60;99.90
26599;DHT22;14240;51.064;16.612;2022-12-26T00:33:49;8.60;99.90
26599;DHT22;14240;51.064;16.612;2022-12-26T00:36:18;8.60;99.90
26599;DHT22;14240;51.064;16.612;2022-12-26T00:38:45;8.60;99.90
26599;DHT22;14240;51.064;16.612;2022-12-26T00:41:12;8.60;99.90
26599;DHT22;14240;51.064;16.612;2022-12-26T00:43:38;8.60;99.90
26599;DHT22;14240;51.064;16.612;2022-12-26T00:46:04;8.70;99.90
26599;DHT22;14240;51.064;16.612;2022-12-26T00:48:31;8.70;99.90
26599;DHT22;14240;51.064;16.612;2022-12-26T00:50:58;8.80;99.90
26599;DHT22;14240;51.064;16.612;2022-12-26T00:53:24;8.80;99.90
26599;DHT22;14240;51.064;16.612;2022-12-26T00:55:50;8.80;99.90
26599;DHT22;14240;51.064;16.612;2022-12-26T00:58:17;8.90;99.90
26599;DHT22;14240;51.064;16.612;2022-12-26T01:00:42;8.90;99.90
26599;DHT22;14240;51.064;16.612;2022-12-26T01:03:09;9.00;99.90
26599;DHT22;14240;51.064;16.612;2022-12-26T01:05:42;9.00;99.90
26599;DHT22;14240;51.064;16.612;2022-12-26T01:08:09;9.10;99.90
26599;DHT22;14240;51.064;16.612;2022-12-26T01:10:34;9.20;99.90
26599;DHT22;14240;51.064;16.612;2022-12-26T01:13:01;9.20;99.90
26599;DHT22;14240;51.064;16.612;2022-12-26T01:15:26;9.30;99.90
26599;DHT22;14240;51.064;16.612;2022-12-26T01:17:52;9.30;99.90
26599;DHT22;14240;51.064;16.612;2022-12-26T01:20:18;9.30;99.90
26599;DHT22;14240;51.064;16.612;2022-12-26T01:22:43;9.40;99.90
26599;DHT22;14240;51.064;16.612;2022-12-26T01:25:10;9.40;99.90
26599;DHT22;14240;51.064;16.612;2022-12-26T01:27:36;9.40;99.90
26599;DHT22;14240;51.064;16.612;2022-12-26T01:30:02;9.40;99.90
26599;DHT22;14240;51.064;16.612;2022-12-26T01:32:28;9.50;99.90
26599;DHT22;14240;51.064;16.612;2022-12-26T01:34:54;9.50;99.90
26599;DHT22;14240;51.064;16.612;2022-12-26T01:37:21;9.50;99.90
26599;DHT22;14240;51.064;16.612;2022-12-26T01:39:53;9.50;99.90
26599;DHT22;14240;51.064;16.612;2022-12-26T01:42:21;9.60;99.90
26599;DHT22;14240;51.064;16.612;2022-12-26T01:45:00;9.60;99.90
26599;DHT22;14240;51.064;16.612;2022-12-26T01:47:39;9.60;99.90
26599;DHT22;14240;51.064;16.612;2022-12-26T01:50:14;9.60;99.90
26599;DHT22;14240;51.064;16.612;2022-12-26T01:52:45;9.60;99.90
26599;DHT22;14240;51.064;16.612;2022-12-26T01:55:15;9.70;99.90
26599;DHT22;14240;51.064;16.612;2022-12-26T01:57:53;9.70;99.90
26599;DHT22;14240;51.064;16.612;2022-12-26T02:00:20;9.70;99.90
26599;DHT22;14240;51.064;16.612;2022-12-26T02:02:46;9.70;99.90
26599;DHT22;14240;51.064;16.612;2022-12-26T02:05:31;9.70;99.90
26599;DHT22;14240;51.064;16.612;2022-12-26T02:08:28;9.70;99.90
26599;DHT22;14240;51.064;16.612;2022-12-26T02:13:42;9.80;99.90
26599;DHT22;14240;51.064;16.612;2022-12-26T02:16:11;9.70;99.90
26599;DHT22;14240;51.064;16.612;2022-12-26T02:18:37;9.70;99.90
26599;DHT22;14240;51.064;16.612;2022-12-26T02:23:51;9.70;99.90
26599;DHT22;14240;51.064;16.612;2022-12-26T02:29:20;9.70;99.90
26599;DHT22;14240;51.064;16.612;2022-12-26T02:35:46;9.70;99.90
26599;DHT22;14240;51.064;16.612;2022-12-26T02:54:39;9.80;99.90
26599;DHT22;14240;51.064;16.612;2022-12-26T02:57:35;9.80;99.90
26599;DHT22;14240;51.064;16.612;2022-12-26T03:00:20;9.80;99.90
26599;DHT22;14240;51.064;16.612;2022-12-26T03:03:06;9.80;99.90
26599;DHT22;14240;51.064;16.612;2022-12-26T03:06:10;9.80;99.90
26599;DHT22;14240;51.064;16.612;2022-12-26T03:09:04;9.80;99.90
26599;DHT22;14240;51.064;16.612;2022-12-26T03:11:52;9.90;99.90
26599;DHT22;14240;51.064;16.612;2022-12-26T03:14:53;9.90;99.90
26599;DHT22;14240;51.064;16.612;2022-12-26T03:17:33;9.90;99.90
26599;DHT22;14240;51.064;16.612;2022-12-26T03:22:49;9.90;99.90
26599;DHT22;14240;51.064;16.612;2022-12-26T03:28:09;9.90;99.90
26599;DHT22;14240;51.064;16.612;2022-12-26T03:30:35;10.00;99.90
26599;DHT22;14240;51.064;16.612;2022-12-26T03:33:32;9.90;99.90
26599;DHT22;14240;51.064;16.612;2022-12-26T03:42:50;10.00;99.90
26599;DHT22;14240;51.064;16.612;2022-12-26T03:52:03;10.00;99.90
26599;DHT22;14240;51.064;16.612;2022-12-26T03:55:17;10.00;99.90
26599;DHT22;14240;51.064;16.612;2022-12-26T03:58:10;10.10;99.90
26599;DHT22;14240;51.064;16.612;2022-12-26T04:00:57;10.10;99.90
26599;DHT22;14240;51.064;16.612;2022-12-26T04:03:43;10.10;99.90
26599;DHT22;14240;51.064;16.612;2022-12-26T04:06:37;10.10;99.90
26599;DHT22;14240;51.064;16.612;2022-12-26T04:09:42;10.10;99.90
26599;DHT22;14240;51.064;16.612;2022-12-26T04:12:28;10.10;99.90
26599;DHT22;14240;51.064;16.612;2022-12-26T04:15:32;10.10;99.90
26599;DHT22;14240;51.064;16.612;2022-12-26T04:18:25;10.10;99.90
26599;DHT22;14240;51.064;16.612;2022-12-26T04:21:26;10.10;99.90
26599;DHT22;14240;51.064;16.612;2022-12-26T04:24:18;10.10;99.90
26599;DHT22;14240;51.064;16.612;2022-12-26T04:27:05;10.10;99.90
26599;DHT22;14240;51.064;16.612;2022-12-26T04:29:51;10.10;99.90
26599;DHT22;14240;51.064;16.612;2022-12-26T04:38:23;10.20;99.90
26599;DHT22;14240;51.064;16.612;2022-12-26T04:41:10;10.20;99.90
26599;DHT22;14240;51.064;16.612;2022-12-26T04:43:59;10.20;99.90
26599;DHT22;14240;51.064;16.612;2022-12-26T04:46:36;10.20;99.90
26599;DHT22;14240;51.064;16.612;2022-12-26T04:49:05;10.20;99.90
26599;DHT22;14240;51.064;16.612;2022-12-26T04:51:50;10.20;99.90
26599;DHT22;14240;51.064;16.612;2022-12-26T04:54:16;10.20;99.90
26599;DHT22;14240;51.064;16.612;2022-12-26T04:56:42;10.20;99.90
26599;DHT22;14240;51.064;16.612;2022-12-26T04:59:08;10.20;99.90
26599;DHT22;14240;51.064;16.612;2022-12-26T05:01:34;10.30;99.90
26599;DHT22;14240;51.064;16.612;2022-12-26T05:04:18;10.20;99.90
26599;DHT22;14240;51.064;16.612;2022-12-26T05:07:05;10.30;99.90
26599;DHT22;14240;51.064;16.612;2022-12-26T05:09:54;10.30;99.90
26599;DHT22;14240;51.064;16.612;2022-12-26T05:12:20;10.30;99.90
26599;DHT22;14240;51.064;16.612;2022-12-26T05:14:46;10.30;99.90
26599;DHT22;14240;51.064;16.612;2022-12-26T05:17:12;10.30;99.90
26599;DHT22;14240;51.064;16.612;2022-12-26T05:19:57;10.30;99.90
26599;DHT22;14240;51.064;16.612;2022-12-26T05:22:43;10.30;99.90
26599;DHT22;14240;51.064;16.612;2022-12-26T05:25:31;10.20;99.90
26599;DHT22;14240;51.064;16.612;2022-12-26T05:28:16;10.20;99.90
26599;DHT22;14240;51.064;16.612;2022-12-26T05:31:01;10.20;99.90
26599;DHT22;14240;51.064;16.612;2022-12-26T05:33:27;10.30;99.90
26599;DHT22;14240;51.064;16.612;2022-12-26T05:36:12;10.30;99.90
26599;DHT22;14240;51.064;16.612;2022-12-26T05:38:39;10.30;99.90
26599;DHT22;14240;51.064;16.612;2022-12-26T05:41:05;10.30;99.90
26599;DHT22;14240;51.064;16.612;2022-12-26T05:43:31;10.30;99.90
26599;DHT22;14240;51.064;16.612;2022-12-26T05:45:57;10.30;99.90
26599;DHT22;14240;51.064;16.612;2022-12-26T05:48:22;10.30;99.90
26599;DHT22;14240;51.064;16.612;2022-12-26T05:50:48;10.40;99.90
26599;DHT22;14240;51.064;16.612;2022-12-26T05:53:14;10.30;99.90
26599;DHT22;14240;51.064;16.612;2022-12-26T05:55:40;10.40;99.90
26599;DHT22;14240;51.064;16.612;2022-12-26T05:58:06;10.30;99.90
26599;DHT22;14240;51.064;16.612;2022-12-26T06:00:32;10.30;99.90
26599;DHT22;14240;51.064;16.612;2022-12-26T06:02:58;10.40;99.90
26599;DHT22;14240;51.064;16.612;2022-12-26T06:05:24;10.40;99.90
26599;DHT22;14240;51.064;16.612;2022-12-26T06:07:50;10.30;99.90
26599;DHT22;14240;51.064;16.612;2022-12-26T06:10:16;10.30;99.90
26599;DHT22;14240;51.064;16.612;2022-12-26T06:12:43;10.30;99.90
26599;DHT22;14240;51.064;16.612;2022-12-26T06:15:09;10.30;99.90
26599;DHT22;14240;51.064;16.612;2022-12-26T06:17:35;10.30;99.90
26599;DHT22;14240;51.064;16.612;2022-12-26T06:20:01;10.30;99.90
26599;DHT22;14240;51.064;16.612;2022-12-26T06:22:29;10.30;99.90
26599;DHT22;14240;51.064;16.612;2022-12-26T06:24:55;10.30;99.90
26599;DHT22;14240;51.064;16.612;2022-12-26T06:27:21;10.30;99.90
26599;DHT22;14240;51.064;16.612;2022-12-26T06:29:46;10.30;99.90
26599;DHT22;14240;51.064;16.612;2022-12-26T06:32:12;10.30;99.90
26599;DHT22;14240;51.064;16.612;2022-12-26T06:34:38;10.30;99.90
26599;DHT22;14240;51.064;16.612;2022-12-26T06:37:04;10.90;99.90
26599;DHT22;14240;51.064;16.612;2022-12-26T06:39:29;10.20;99.90
26599;DHT22;14240;51.064;16.612;2022-12-26T06:41:55;10.40;99.90
26599;DHT22;14240;51.064;16.612;2022-12-26T06:44:21;10.20;99.90
26599;DHT22;14240;51.064;16.612;2022-12-26T06:46:46;10.20;99.90
26599;DHT22;14240;51.064;16.612;2022-12-26T06:49:12;10.20;99.90
26599;DHT22;14240;51.064;16.612;2022-12-26T06:51:38;10.20;99.90
26599;DHT22;14240;51.064;16.612;2022-12-26T06:54:03;10.20;99.90
26599;DHT22;14240;51.064;16.612;2022-12-26T06:56:30;10.20;99.90
26599;DHT22;14240;51.064;16.612;2022-12-26T06:59:02;10.10;99.90
26599;DHT22;14240;51.064;16.612;2022-12-26T07:01:30;10.10;99.90
26599;DHT22;14240;51.064;16.612;2022-12-26T07:03:56;10.10;99.90
26599;DHT22;14240;51.064;16.612;2022-12-26T07:09:02;10.00;99.90
26599;DHT22;14240;51.064;16.612;2022-12-26T07:11:30;10.00;99.90
26599;DHT22;14240;51.064;16.612;2022-12-26T07:13:57;10.10;99.90
26599;DHT22;14240;51.064;16.612;2022-12-26T07:16:23;10.00;99.90
26599;DHT22;14240;51.064;16.612;2022-12-26T07:18:51;10.00;99.90
26599;DHT22;14240;51.064;16.612;2022-12-26T07:21:18;10.00;99.90
26599;DHT22;14240;51.064;16.612;2022-12-26T07:23:44;10.00;99.90
26599;DHT22;14240;51.064;16.612;2022-12-26T07:26:09;10.00;99.90
26599;DHT22;14240;51.064;16.612;2022-12-26T07:28:35;10.00;99.90
26599;DHT22;14240;51.064;16.612;2022-12-26T07:31:01;10.00;99.90
26599;DHT22;14240;51.064;16.612;2022-12-26T07:33:27;10.00;99.90
26599;DHT22;14240;51.064;16.612;2022-12-26T07:36:01;10.00;99.90
26599;DHT22;14240;51.064;16.612;2022-12-26T07:38:27;10.00;99.90
26599;DHT22;14240;51.064;16.612;2022-12-26T07:40:56;10.10;99.90
26599;DHT22;14240;51.064;16.612;2022-12-26T07:43:24;10.10;99.90
26599;DHT22;14240;51.064;16.612;2022-12-26T07:45:51;10.10;99.90
26599;DHT22;14240;51.064;16.612;2022-12-26T07:48:17;10.10;99.90
26599;DHT22;14240;51.064;16.612;2022-12-26T07:50:43;10.20;99.90
26599;DHT22;14240;51.064;16.612;2022-12-26T07:53:12;10.20;99.90
26599;DHT22;14240;51.064;16.612;2022-12-26T07:55:38;10.20;99.90
26599;DHT22;14240;51.064;16.612;2022-12-26T07:58:04;10.20;99.90
26599;DHT22;14240;51.064;16.612;2022-12-26T08:00:30;10.20;99.90
26599;DHT22;14240;51.064;16.612;2022-12-26T08:02:55;10.20;99.90
26599;DHT22;14240;51.064;16.612;2022-12-26T08:05:21;10.20;99.90
26599;DHT22;14240;51.064;16.612;2022-12-26T08:07:47;10.30;99.90
26599;DHT22;14240;51.064;16.612;2022-12-26T08:10:16;10.30;99.90
26599;DHT22;14240;51.064;16.612;2022-12-26T08:12:42;10.30;99.90
26599;DHT22;14240;51.064;16.612;2022-12-26T08:15:11;10.30;99.90
26599;DHT22;14240;51.064;16.612;2022-12-26T08:17:37;10.30;99.90
26599;DHT22;14240;51.064;16.612;2022-12-26T08:20:03;10.30;99.90
26599;DHT22;14240;51.064;16.612;2022-12-26T08:22:28;10.30;99.90
26599;DHT22;14240;51.064;16.612;2022-12-26T08:24:54;10.40;99.90
26599;DHT22;14240;51.064;16.612;2022-12-26T08:27:20;10.40;99.90
26599;DHT22;14240;51.064;16.612;2022-12-26T08:29:46;10.50;99.90
26599;DHT22;14240;51.064;16.612;2022-12-26T08:32:12;10.50;99.90
26599;DHT22;14240;51.064;16.612;2022-12-26T08:34:38;10.60;99.90
26599;DHT22;14240;51.064;16.612;2022-12-26T08:37:04;10.50;99.90
26599;DHT22;14240;51.064;16.612;2022-12-26T08:39:29;10.50;99.90
26599;DHT22;14240;51.064;16.612;2022-12-26T08:41:55;10.50;99.90
26599;DHT22;14240;51.064;16.612;2022-12-26T08:44:21;10.50;99.90
26599;DHT22;14240;51.064;16.612;2022-12-26T08:46:47;10.50;99.90
26599;DHT22;14240;51.064;16.612;2022-12-26T08:49:12;10.50;99.90
26599;DHT22;14240;51.064;16.612;2022-12-26T08:51:38;10.50;99.90
26599;DHT22;14240;51.064;16.612;2022-12-26T08:54:04;10.50;99.90
26599;DHT22;14240;51.064;16.612;2022-12-26T08:56:30;10.60;99.90
26599;DHT22;14240;51.064;16.612;2022-12-26T08:58:56;10.60;99.90
26599;DHT22;14240;51.064;16.612;2022-12-26T09:01:25;11.00;99.90
26599;DHT22;14240;51.064;16.612;2022-12-26T09:03:52;11.80;99.90
26599;DHT22;14240;51.064;16.612;2022-12-26T09:06:18;12.90;99.90
26599;DHT22;14240;51.064;16.612;2022-12-26T09:08:44;14.00;99.90
26599;DHT22;14240;51.064;16.612;2022-12-26T09:11:13;15.10;99.90
26599;DHT22;14240;51.064;16.612;2022-12-26T09:13:40;15.70;99.90
26599;DHT22;14240;51.064;16.612;2022-12-26T09:16:08;15.90;99.90
26599;DHT22;14240;51.064;16.612;2022-12-26T09:18:34;15.60;99.90
26599;DHT22;14240;51.064;16.612;2022-12-26T09:21:05;15.20;99.90
26599;DHT22;14240;51.064;16.612;2022-12-26T09:23:31;14.90;99.90
26599;DHT22;14240;51.064;16.612;2022-12-26T09:26:09;14.60;99.90
26599;DHT22;14240;51.064;16.612;2022-12-26T09:28:35;14.30;99.90
26599;DHT22;14240;51.064;16.612;2022-12-26T09:31:03;14.40;99.90
26599;DHT22;14240;51.064;16.612;2022-12-26T09:33:29;14.80;99.90
26599;DHT22;14240;51.064;16.612;2022-12-26T09:35:56;15.60;99.90
26599;DHT22;14240;51.064;16.612;2022-12-26T09:38:22;16.50;99.90
26599;DHT22;14240;51.064;16.612;2022-12-26T09:49:02;19.90;99.90
26599;DHT22;14240;51.064;16.612;2022-12-26T09:51:30;20.40;99.90
26599;DHT22;14240;51.064;16.612;2022-12-26T09:53:59;20.50;99.90
26599;DHT22;14240;51.064;16.612;2022-12-26T09:56:26;20.60;99.90
26599;DHT22;14240;51.064;16.612;2022-12-26T09:58:56;21.00;99.60
26599;DHT22;14240;51.064;16.612;2022-12-26T10:01:33;21.10;98.30
26599;DHT22;14240;51.064;16.612;2022-12-26T10:04:03;21.00;97.20
26599;DHT22;14240;51.064;16.612;2022-12-26T10:06:41;20.50;97.00
26599;DHT22;14240;51.064;16.612;2022-12-26T10:09:35;20.00;97.70
26599;DHT22;14240;51.064;16.612;2022-12-26T10:12:39;19.70;97.60
26599;DHT22;14240;51.064;16.612;2022-12-26T10:15:46;19.50;97.90
26599;DHT22;14240;51.064;16.612;2022-12-26T10:24:24;18.50;98.40
26599;DHT22;14240;51.064;16.612;2022-12-26T10:26:59;18.00;98.70
26599;DHT22;14240;51.064;16.612;2022-12-26T10:29:32;17.60;99.10
26599;DHT22;14240;51.064;16.612;2022-12-26T10:34:46;16.90;99.90
26599;DHT22;14240;51.064;16.612;2022-12-26T10:39:59;16.50;99.90
26599;DHT22;14240;51.064;16.612;2022-12-26T10:42:50;16.40;99.90
26599;DHT22;14240;51.064;16.612;2022-12-26T10:45:40;16.30;99.90
26599;DHT22;14240;51.064;16.612;2022-12-26T10:48:03;16.20;99.90
26599;DHT22;14240;51.064;16.612;2022-12-26T10:50:31;16.20;99.90
26599;DHT22;14240;51.064;16.612;2022-12-26T10:53:00;16.10;99.90
26599;DHT22;14240;51.064;16.612;2022-12-26T10:55:30;16.00;99.90
26599;DHT22;14240;51.064;16.612;2022-12-26T10:58:02;15.90;99.90
26599;DHT22;14240;51.064;16.612;2022-12-26T11:00:30;15.80;99.90
26599;DHT22;14240;51.064;16.612;2022-12-26T11:03:09;15.80;99.90
26599;DHT22;14240;51.064;16.612;2022-12-26T11:05:50;15.80;99.90
26599;DHT22;14240;51.064;16.612;2022-12-26T11:08:46;15.70;99.90
26599;DHT22;14240;51.064;16.612;2022-12-26T11:11:23;15.70;99.90
26599;DHT22;14240;51.064;16.612;2022-12-26T11:13:53;15.70;99.90
26599;DHT22;14240;51.064;16.612;2022-12-26T11:16:25;15.60;99.90
26599;DHT22;14240;51.064;16.612;2022-12-26T11:18:52;15.50;99.90
26599;DHT22;14240;51.064;16.612;2022-12-26T11:23:51;15.50;99.90
26599;DHT22;14240;51.064;16.612;2022-12-26T11:26:27;15.50;99.90
26599;DHT22;14240;51.064;16.612;2022-12-26T11:29:19;15.50;99.90
26599;DHT22;14240;51.064;16.612;2022-12-26T11:31:59;15.60;99.90
26599;DHT22;14240;51.064;16.612;2022-12-26T11:34:40;15.70;99.90
26599;DHT22;14240;51.064;16.612;2022-12-26T11:37:33;15.70;99.90
26599;DHT22;14240;51.064;16.612;2022-12-26T11:40:00;15.70;99.90
26599;DHT22;14240;51.064;16.612;2022-12-26T11:42:27;15.70;99.90
26599;DHT22;14240;51.064;16.612;2022-12-26T11:44:54;15.70;99.90
26599;DHT22;14240;51.064;16.612;2022-12-26T11:47:21;15.70;99.90
26599;DHT22;14240;51.064;16.612;2022-12-26T11:50:09;15.60;99.90
26599;DHT22;14240;51.064;16.612;2022-12-26T11:55:35;15.50;99.90
26599;DHT22;14240;51.064;16.612;2022-12-26T12:00:39;15.40;99.90
26599;DHT22;14240;51.064;16.612;2022-12-26T12:08:52;15.10;99.90
26599;DHT22;14240;51.064;16.612;2022-12-26T12:16:51;15.00;99.90
26599;DHT22;14240;51.064;16.612;2022-12-26T12:22:09;14.90;99.90
26599;DHT22;14240;51.064;16.612;2022-12-26T12:28:17;14.90;99.90
26599;DHT22;14240;51.064;16.612;2022-12-26T12:30:44;14.90;99.90
26599;DHT22;14240;51.064;16.612;2022-12-26T12:36:09;14.80;99.90
26599;DHT22;14240;51.064;16.612;2022-12-26T12:46:38;14.70;99.90
26599;DHT22;14240;51.064;16.612;2022-12-26T12:49:22;14.60;99.90
26599;DHT22;14240;51.064;16.612;2022-12-26T12:52:12;14.60;99.90
26599;DHT22;14240;51.064;16.612;2022-12-26T12:59:05;14.50;99.90
26599;DHT22;14240;51.064;16.612;2022-12-26T13:03:49;14.20;99.90
26599;DHT22;14240;51.064;16.612;2022-12-26T13:07:03;14.10;99.90
26599;DHT22;14240;51.064;16.612;2022-12-26T13:09:27;14.10;99.90
26599;DHT22;14240;51.064;16.612;2022-12-26T13:12:01;14.10;99.90
26599;DHT22;14240;51.064;16.612;2022-12-26T13:17:04;14.00;99.90
26599;DHT22;14240;51.064;16.612;2022-12-26T13:19:38;13.90;99.90
26599;DHT22;14240;51.064;16.612;2022-12-26T13:22:16;13.90;99.90
26599;DHT22;14240;51.064;16.612;2022-12-26T13:24:53;13.80;99.90
26599;DHT22;14240;51.064;16.612;2022-12-26T13:27:24;13.80;99.90
26599;DHT22;14240;51.064;16.612;2022-12-26T13:29:54;13.80;99.90
26599;DHT22;14240;51.064;16.612;2022-12-26T13:32:28;13.70;99.90
26599;DHT22;14240;51.064;16.612;2022-12-26T13:34:57;13.70;99.90
26599;DHT22;14240;51.064;16.612;2022-12-26T13:40:16;13.50;99.90
26599;DHT22;14240;51.064;16.612;2022-12-26T14:07:36;13.10;99.90
26599;DHT22;14240;51.064;16.612;2022-12-26T14:10:21;13.10;99.90
26599;DHT22;14240;51.064;16.612;2022-12-26T14:19:10;12.90;99.90
26599;DHT22;14240;51.064;16.612;2022-12-26T14:21:42;12.90;99.90
26599;DHT22;14240;51.064;16.612;2022-12-26T14:30:23;12.70;99.90
26599;DHT22;14240;51.064;16.612;2022-12-26T14:48:53;12.50;99.90
26599;DHT22;14240;51.064;16.612;2022-12-26T14:53:47;12.50;99.90
26599;DHT22;14240;51.064;16.612;2022-12-26T14:56:35;12.40;99.90
26599;DHT22;14240;51.064;16.612;2022-12-26T14:59:27;12.40;99.90
26599;DHT22;14240;51.064;16.612;2022-12-26T15:02:10;12.40;99.90
26599;DHT22;14240;51.064;16.612;2022-12-26T15:07:54;12.30;99.90
26599;DHT22;14240;51.064;16.612;2022-12-26T15:19:07;12.20;99.90
26599;DHT22;14240;51.064;16.612;2022-12-26T15:22:13;12.10;99.90
26599;DHT22;14240;51.064;16.612;2022-12-26T15:31:05;12.00;99.90
26599;DHT22;14240;51.064;16.612;2022-12-26T15:39:02;11.90;99.90
26599;DHT22;14240;51.064;16.612;2022-12-26T15:41:45;12.00;99.90
26599;DHT22;14240;51.064;16.612;2022-12-26T15:44:43;11.90;99.90
26599;DHT22;14240;51.064;16.612;2022-12-26T15:52:54;11.90;99.90
26599;DHT22;14240;51.064;16.612;2022-12-26T16:01:37;11.80;99.90
26599;DHT22;14240;51.064;16.612;2022-12-26T16:09:47;11.70;99.90
26599;DHT22;14240;51.064;16.612;2022-12-26T16:12:27;11.80;99.90
26599;DHT22;14240;51.064;16.612;2022-12-26T16:15:20;11.70;99.90
26599;DHT22;14240;51.064;16.612;2022-12-26T16:17:49;11.60;99.90
26599;DHT22;14240;51.064;16.612;2022-12-26T16:20:31;11.60;99.90
26599;DHT22;14240;51.064;16.612;2022-12-26T16:23:23;11.50;99.90
26599;DHT22;14240;51.064;16.612;2022-12-26T16:25:54;11.40;99.90
26599;DHT22;14240;51.064;16.612;2022-12-26T16:30:55;11.30;99.90
26599;DHT22;14240;51.064;16.612;2022-12-26T16:33:21;11.20;99.90
26599;DHT22;14240;51.064;16.612;2022-12-26T16:35:49;11.20;99.90
26599;DHT22;14240;51.064;16.612;2022-12-26T16:38:20;11.10;99.90
26599;DHT22;14240;51.064;16.612;2022-12-26T16:40:49;11.10;99.90
26599;DHT22;14240;51.064;16.612;2022-12-26T16:45:46;10.40;99.90
26599;DHT22;14240;51.064;16.612;2022-12-26T16:48:17;11.00;99.90
26599;DHT22;14240;51.064;16.612;2022-12-26T16:50:53;11.00;99.90
26599;DHT22;14240;51.064;16.612;2022-12-26T16:53:40;11.00;99.90
26599;DHT22;14240;51.064;16.612;2022-12-26T16:59:06;10.90;99.90
26599;DHT22;14240;51.064;16.612;2022-12-26T17:01:53;10.90;99.90
26599;DHT22;14240;51.064;16.612;2022-12-26T17:04:22;10.90;99.90
26599;DHT22;14240;51.064;16.612;2022-12-26T17:07:00;10.80;99.90
26599;DHT22;14240;51.064;16.612;2022-12-26T17:09:29;10.80;99.90
26599;DHT22;14240;51.064;16.612;2022-12-26T17:14:46;10.80;99.90
26599;DHT22;14240;51.064;16.612;2022-12-26T17:19:50;10.80;99.90
26599;DHT22;14240;51.064;16.612;2022-12-26T17:22:34;10.80;99.90
26599;DHT22;14240;51.064;16.612;2022-12-26T17:30:46;10.70;99.90
26599;DHT22;14240;51.064;16.612;2022-12-26T17:33:20;10.80;99.90
26599;DHT22;14240;51.064;16.612;2022-12-26T17:35:56;10.80;99.90
26599;DHT22;14240;51.064;16.612;2022-12-26T17:38:24;10.80;99.90
26599;DHT22;14240;51.064;16.612;2022-12-26T17:40:54;10.80;99.90
26599;DHT22;14240;51.064;16.612;2022-12-26T17:43:40;10.80;99.90
26599;DHT22;14240;51.064;16.612;2022-12-26T17:46:09;10.80;99.90
26599;DHT22;14240;51.064;16.612;2022-12-26T17:48:38;10.80;99.90
26599;DHT22;14240;51.064;16.612;2022-12-26T17:51:05;10.70;99.90
26599;DHT22;14240;51.064;16.612;2022-12-26T17:53:32;10.70;99.90
26599;DHT22;14240;51.064;16.612;2022-12-26T17:56:04;10.70;99.90
26599;DHT22;14240;51.064;16.612;2022-12-26T17:58:30;10.70;99.90
26599;DHT22;14240;51.064;16.612;2022-12-26T18:00:57;10.70;99.90
26599;DHT22;14240;51.064;16.612;2022-12-26T18:03:24;10.70;99.90
26599;DHT22;14240;51.064;16.612;2022-12-26T18:05:50;10.70;99.90
26599;DHT22;14240;51.064;16.612;2022-12-26T18:08:38;10.60;99.90
26599;DHT22;14240;51.064;16.612;2022-12-26T18:11:07;10.60;99.90
26599;DHT22;14240;51.064;16.612;2022-12-26T18:13:33;10.60;99.90
26599;DHT22;14240;51.064;16.612;2022-12-26T18:15:59;10.50;99.90
26599;DHT22;14240;51.064;16.612;2022-12-26T18:18:39;10.50;99.90
26599;DHT22;14240;51.064;16.612;2022-12-26T18:21:09;10.50;99.90
26599;DHT22;14240;51.064;16.612;2022-12-26T18:23:35;10.50;99.90
26599;DHT22;14240;51.064;16.612;2022-12-26T18:26:06;10.40;99.90
26599;DHT22;14240;51.064;16.612;2022-12-26T18:28:33;10.40;99.90
26599;DHT22;14240;51.064;16.612;2022-12-26T18:30:59;10.40;99.90
26599;DHT22;14240;51.064;16.612;2022-12-26T18:33:25;10.40;99.90
26599;DHT22;14240;51.064;16.612;2022-12-26T18:35:51;10.40;99.90
26599;DHT22;14240;51.064;16.612;2022-12-26T18:38:18;10.40;99.90
26599;DHT22;14240;51.064;16.612;2022-12-26T18:40:49;10.40;99.90
26599;DHT22;14240;51.064;16.612;2022-12-26T18:43:17;10.40;99.90
26599;DHT22;14240;51.064;16.612;2022-12-26T18:45:43;10.30;99.90
26599;DHT22;14240;51.064;16.612;2022-12-26T18:48:13;10.30;99.90
26599;DHT22;14240;51.064;16.612;2022-12-26T18:50:39;10.30;99.90
26599;DHT22;14240;51.064;16.612;2022-12-26T18:53:05;10.30;99.90
26599;DHT22;14240;51.064;16.612;2022-12-26T18:55:30;10.20;99.90
26599;DHT22;14240;51.064;16.612;2022-12-26T18:57:56;10.20;99.90
26599;DHT22;14240;51.064;16.612;2022-12-26T19:00:23;10.20;99.90
26599;DHT22;14240;51.064;16.612;2022-12-26T19:02:49;10.20;99.90
26599;DHT22;14240;51.064;16.612;2022-12-26T19:05:18;10.20;99.90
26599;DHT22;14240;51.064;16.612;2022-12-26T19:07:44;10.10;99.90
26599;DHT22;14240;51.064;16.612;2022-12-26T19:10:13;10.10;99.90
26599;DHT22;14240;51.064;16.612;2022-12-26T19:12:40;10.10;99.90
26599;DHT22;14240;51.064;16.612;2022-12-26T19:15:07;10.10;99.90
26599;DHT22;14240;51.064;16.612;2022-12-26T19:17:33;10.10;99.90
26599;DHT22;14240;51.064;16.612;2022-12-26T19:19:59;10.10;99.90
26599;DHT22;14240;51.064;16.612;2022-12-26T19:22:25;10.00;99.90
26599;DHT22;14240;51.064;16.612;2022-12-26T19:24:51;10.00;99.90
26599;DHT22;14240;51.064;16.612;2022-12-26T19:27:18;10.00;99.90
26599;DHT22;14240;51.064;16.612;2022-12-26T19:29:43;10.00;99.90
26599;DHT22;14240;51.064;16.612;2022-12-26T19:32:09;10.00;99.90
26599;DHT22;14240;51.064;16.612;2022-12-26T19:34:35;9.90;99.90
26599;DHT22;14240;51.064;16.612;2022-12-26T19:37:01;9.90;99.90
26599;DHT22;14240;51.064;16.612;2022-12-26T19:39:26;9.90;99.90
26599;DHT22;14240;51.064;16.612;2022-12-26T19:41:52;9.90;99.90
26599;DHT22;14240;51.064;16.612;2022-12-26T19:44:18;9.90;99.90
26599;DHT22;14240;51.064;16.612;2022-12-26T19:46:44;9.90;99.90
26599;DHT22;14240;51.064;16.612;2022-12-26T19:49:11;10.00;99.90
26599;DHT22;14240;51.064;16.612;2022-12-26T19:51:37;9.90;99.90